createdAt,value
2019-03-02T00:01:52.050Z,44.10
2019-03-02T00:04:21.462Z,45.57
2019-03-02T00:06:51.154Z,39.60
2019-03-02T00:09:20.452Z,52.93
2019-03-02T00:11:52.952Z,42.00
2019-03-02T00:14:20.794Z,47.90
2019-03-02T00:16:50.141Z,46.87
2019-03-02T00:19:19.796Z,60.33
2019-03-02T00:21:49.139Z,50.83
2019-03-02T00:24:18.915Z,48.40
2019-03-02T00:26:48.260Z,46.13
2019-03-02T00:29:17.498Z,50.67
2019-03-02T00:31:46.832Z,48.77
2019-03-02T00:34:16.152Z,48.00
2019-03-02T00:36:45.566Z,53.70
2019-03-02T00:39:15.703Z,49.27
2019-03-02T00:41:46.488Z,53.53
2019-03-02T00:44:15.824Z,47.80
2019-03-02T00:46:45.150Z,47.67
2019-03-02T00:49:14.466Z,49.43
2019-03-02T00:51:46.329Z,47.57
2019-03-02T00:54:14.825Z,46.43
2019-03-02T00:56:44.197Z,47.53
2019-03-02T00:59:13.509Z,41.07
2019-03-02T01:01:42.899Z,46.43
2019-03-02T01:04:12.290Z,51.80
2019-03-02T01:06:45.091Z,51.70
2019-03-02T01:09:13.053Z,48.80
2019-03-02T01:11:42.649Z,48.43
2019-03-02T01:14:11.948Z,57.23
2019-03-02T01:16:41.286Z,46.70
2019-03-02T01:19:10.660Z,55.30
2019-03-02T01:21:41.355Z,41.70
2019-03-02T01:24:11.266Z,44.93
2019-03-02T01:26:40.568Z,43.90
2019-03-02T01:29:09.885Z,50.03
2019-03-02T01:31:40.716Z,51.90
2019-03-02T01:34:10.387Z,46.37
2019-03-02T01:36:39.715Z,56.93
2019-03-02T01:39:09.061Z,55.60
2019-03-02T01:41:38.381Z,49.77
2019-03-02T01:44:07.692Z,61.20
2019-03-02T01:46:37.540Z,51.20
2019-03-02T01:49:08.382Z,50.57
2019-03-02T01:51:37.692Z,59.07
2019-03-02T01:54:07.030Z,54.30
2019-03-02T01:56:37.695Z,52.37
2019-03-02T01:59:07.348Z,53.70
2019-03-02T02:01:36.691Z,51.53
2019-03-02T02:04:06.017Z,56.73
2019-03-02T02:06:35.333Z,53.03
2019-03-02T02:09:06.844Z,50.23
2019-03-02T02:11:36.205Z,58.60
2019-03-02T02:14:05.828Z,51.87
2019-03-02T02:16:38.752Z,57.07
2019-03-02T02:19:08.490Z,63.83
2019-03-02T02:21:37.883Z,51.87
2019-03-02T02:24:07.584Z,54.97
2019-03-02T02:26:36.985Z,50.47
2019-03-02T02:29:08.261Z,71.23
2019-03-02T02:31:44.597Z,55.13
2019-03-02T02:34:08.441Z,54.57
2019-03-02T02:36:37.757Z,58.57
2019-03-02T02:39:09.810Z,56.40
2019-03-02T02:41:39.093Z,62.63
2019-03-02T02:44:08.447Z,63.77
2019-03-02T02:46:37.753Z,60.83
2019-03-02T02:49:10.149Z,52.63
2019-03-02T02:51:38.114Z,61.83
2019-03-02T02:54:07.405Z,72.03
2019-03-02T02:56:37.092Z,59.73
2019-03-02T02:59:06.339Z,63.60
2019-03-02T03:01:35.659Z,63.40
2019-03-02T03:04:05.301Z,68.03
2019-03-02T03:06:34.711Z,73.47
2019-03-02T03:09:09.801Z,84.67
2019-03-02T03:11:43.998Z,61.47
2019-03-02T03:14:07.708Z,60.27
2019-03-02T03:16:37.416Z,61.43
2019-03-02T03:19:07.018Z,70.17
2019-03-02T03:21:36.356Z,67.27
2019-03-02T03:24:06.043Z,68.13
2019-03-02T03:26:36.543Z,62.47
2019-03-02T03:29:09.838Z,62.43
2019-03-02T03:32:07.568Z,65.60
2019-03-02T03:34:30.072Z,73.23
2019-03-02T03:36:58.318Z,71.13
2019-03-02T03:39:27.710Z,71.10
2019-03-02T03:41:57.137Z,64.83
2019-03-02T03:44:27.732Z,59.20
2019-03-02T03:47:00.603Z,70.20
2019-03-02T03:49:30.020Z,65.20
2019-03-02T03:52:03.985Z,65.63
2019-03-02T03:54:30.641Z,70.27
2019-03-02T03:56:59.969Z,61.97
2019-03-02T03:59:29.345Z,67.97
2019-03-02T04:01:58.830Z,69.40
2019-03-02T04:04:29.052Z,73.53
2019-03-02T04:07:01.443Z,71.87
2019-03-02T04:09:30.571Z,66.97
2019-03-02T04:11:59.893Z,69.83
2019-03-02T04:14:29.271Z,69.23
2019-03-02T04:17:00.497Z,65.13
2019-03-02T04:19:34.035Z,70.03
2019-03-02T04:22:06.367Z,70.80
2019-03-02T04:24:39.821Z,65.90
2019-03-02T04:27:10.952Z,72.43
2019-03-02T04:29:48.915Z,70.10
2019-03-02T04:32:11.410Z,62.63
2019-03-02T04:34:40.781Z,69.00
2019-03-02T04:37:10.506Z,63.60
2019-03-02T04:39:39.864Z,67.03
2019-03-02T04:42:11.814Z,70.93
2019-03-02T04:44:40.229Z,60.70
2019-03-02T04:47:09.523Z,65.40
2019-03-02T04:49:38.960Z,52.53
2019-03-02T04:52:11.594Z,60.70
2019-03-02T04:54:39.347Z,56.30
2019-03-02T04:57:08.678Z,61.90
2019-03-02T04:59:38.032Z,60.13
2019-03-02T05:02:07.358Z,53.73
2019-03-02T05:04:36.932Z,69.73
2019-03-02T05:07:06.267Z,54.97
2019-03-02T05:09:35.585Z,54.63
2019-03-02T05:12:04.913Z,56.93
2019-03-02T05:14:36.680Z,59.60
2019-03-02T05:17:07.344Z,60.20
2019-03-02T05:19:55.475Z,65.50
2019-03-02T05:22:24.850Z,70.87
2019-03-02T05:24:54.141Z,63.80
2019-03-02T05:27:23.446Z,62.33
2019-03-02T05:29:54.506Z,63.57
2019-03-02T05:32:23.793Z,62.50
2019-03-02T05:34:53.259Z,66.43
2019-03-02T05:37:22.957Z,81.20
2019-03-02T05:39:52.890Z,71.37
2019-03-02T05:42:23.121Z,69.93
2019-03-02T05:44:54.054Z,59.20
2019-03-02T05:47:23.438Z,73.70
2019-03-02T05:49:54.689Z,67.00
2019-03-02T05:52:23.809Z,69.27
2019-03-02T05:54:53.113Z,72.30
2019-03-02T05:57:22.433Z,68.80
2019-03-02T05:59:51.788Z,66.07
2019-03-02T06:02:21.105Z,63.87
2019-03-02T06:04:53.577Z,60.20
2019-03-02T06:07:22.064Z,80.03
2019-03-02T06:09:51.373Z,57.03
2019-03-02T06:12:20.770Z,67.50
2019-03-02T06:14:50.107Z,58.93
2019-03-02T06:17:19.904Z,61.70
2019-03-02T06:19:49.258Z,59.77
2019-03-02T06:22:21.072Z,55.87
2019-03-02T06:24:49.669Z,61.00
2019-03-02T06:27:20.108Z,61.20
2019-03-02T06:29:49.942Z,58.93
2019-03-02T06:32:19.375Z,56.07
2019-03-02T06:34:51.939Z,59.43
2019-03-02T06:37:20.154Z,73.67
2019-03-02T06:39:50.348Z,62.80
2019-03-02T06:42:19.972Z,61.30
2019-03-02T06:44:49.302Z,68.00
2019-03-02T06:47:18.617Z,66.70
2019-03-02T06:49:48.296Z,73.07
2019-03-02T06:52:19.152Z,54.47
2019-03-02T06:54:49.191Z,54.97
2019-03-02T06:57:18.570Z,58.97
2019-03-02T06:59:47.984Z,64.67
2019-03-02T07:02:17.296Z,55.40
2019-03-02T07:04:46.606Z,57.07
2019-03-02T07:07:18.626Z,60.97
2019-03-02T07:09:47.224Z,68.40
2019-03-02T07:12:16.588Z,56.17
2019-03-02T07:14:45.969Z,53.43
2019-03-02T07:17:18.355Z,62.03
2019-03-02T07:19:52.960Z,60.97
2019-03-02T07:22:22.803Z,62.60
2019-03-02T07:24:52.109Z,54.77
2019-03-02T07:27:21.687Z,58.33
2019-03-02T07:29:53.596Z,56.37
2019-03-02T07:32:22.044Z,49.50
2019-03-02T07:34:51.336Z,48.17
2019-03-02T07:37:20.723Z,49.47
2019-03-02T07:39:50.440Z,60.53
2019-03-02T07:42:20.207Z,65.80
2019-03-02T07:44:54.873Z,58.73
2019-03-02T07:47:24.014Z,55.00
2019-03-02T07:49:54.006Z,52.10
2019-03-02T07:52:23.303Z,46.93
2019-03-02T07:54:58.010Z,50.10
2019-03-02T07:57:24.216Z,56.87
2019-03-02T07:59:53.551Z,56.93
2019-03-02T08:02:25.794Z,50.10
2019-03-02T08:04:53.968Z,56.37
2019-03-02T08:07:23.591Z,61.13
2019-03-02T08:09:53.002Z,53.23
2019-03-02T08:12:24.731Z,53.90
2019-03-02T08:14:53.376Z,49.40
2019-03-02T08:17:22.704Z,51.60
2019-03-02T08:19:52.064Z,54.10
2019-03-02T08:22:21.370Z,47.93
2019-03-02T08:24:51.031Z,49.23
2019-03-02T08:27:20.402Z,50.40
2019-03-02T08:29:50.065Z,49.03
2019-03-02T08:32:21.192Z,51.70
2019-03-02T08:34:50.333Z,48.60
2019-03-02T08:37:19.832Z,48.33
2019-03-02T08:39:49.524Z,45.63
2019-03-02T08:42:19.431Z,48.07
2019-03-02T08:44:50.750Z,43.00
2019-03-02T08:47:19.796Z,46.37
2019-03-02T08:49:49.588Z,56.93
2019-03-02T08:52:18.908Z,44.20
2019-03-02T08:54:48.648Z,44.17
2019-03-02T08:57:19.627Z,51.50
2019-03-02T08:59:49.012Z,42.57
2019-03-02T09:02:18.328Z,48.90
2019-03-02T09:04:50.812Z,41.00
2019-03-02T09:08:28.907Z,42.03
2019-03-02T09:10:05.671Z,45.07
2019-03-02T09:12:36.775Z,46.17
2019-03-02T09:15:14.209Z,40.10
2019-03-02T09:17:43.997Z,39.33
2019-03-02T09:20:13.933Z,45.70
2019-03-02T09:22:43.385Z,37.97
2019-03-02T09:25:14.614Z,38.93
2019-03-02T09:27:44.812Z,33.00
2019-03-02T09:30:15.942Z,36.77
2019-03-02T09:32:47.093Z,30.77
2019-03-02T09:35:17.259Z,37.10
2019-03-02T09:37:46.896Z,37.70
2019-03-02T09:40:16.261Z,31.93
2019-03-02T09:42:46.033Z,34.93
2019-03-02T09:45:15.784Z,36.40
2019-03-02T09:47:47.712Z,40.63
2019-03-02T09:50:16.568Z,35.90
2019-03-02T09:52:45.917Z,36.30
2019-03-02T09:55:18.462Z,34.80
2019-03-02T09:57:48.388Z,34.40
2019-03-02T10:00:23.705Z,31.17
2019-03-02T10:02:53.805Z,34.60
2019-03-02T10:05:23.256Z,32.00
2019-03-02T10:07:52.543Z,25.77
2019-03-02T10:10:25.271Z,28.30
2019-03-02T10:12:53.326Z,33.43
2019-03-02T10:15:23.476Z,39.23
2019-03-02T10:17:52.813Z,29.00
2019-03-02T10:20:22.123Z,31.40
2019-03-02T10:22:52.442Z,25.33
2019-03-02T10:25:21.846Z,31.17
2019-03-02T10:27:53.812Z,28.67
2019-03-02T10:30:26.068Z,29.67
2019-03-02T10:32:55.576Z,26.80
2019-03-02T10:35:25.651Z,33.70
2019-03-02T10:37:55.331Z,28.70
2019-03-02T10:40:24.744Z,25.20
2019-03-02T10:42:54.243Z,27.50
2019-03-02T10:45:23.828Z,26.63
2019-03-02T10:47:54.075Z,28.30
2019-03-02T10:50:24.960Z,23.17
2019-03-02T10:52:54.775Z,29.67
2019-03-02T10:55:24.230Z,26.93
2019-03-02T10:57:53.853Z,28.00
2019-03-02T11:00:29.212Z,19.70
2019-03-02T11:02:57.428Z,23.43
2019-03-02T11:05:58.401Z,25.33
2019-03-02T11:08:45.328Z,27.07
2019-03-02T11:11:30.980Z,23.40
2019-03-02T11:14:20.245Z,26.10
2019-03-02T11:17:11.909Z,23.73
2019-03-02T11:20:03.452Z,19.77
2019-03-02T11:22:57.634Z,23.67
2019-03-02T11:25:42.340Z,22.53
2019-03-02T11:28:33.518Z,25.73
2019-03-02T11:31:20.359Z,16.90
2019-03-02T11:34:00.044Z,17.50
2019-03-02T11:36:45.869Z,24.03
2019-03-02T11:39:35.147Z,22.57
2019-03-02T11:42:13.964Z,18.80
2019-03-02T11:45:01.520Z,20.87
2019-03-02T11:47:46.719Z,22.07
2019-03-02T11:50:37.752Z,19.70
2019-03-02T11:53:12.769Z,19.53
2019-03-02T11:56:24.186Z,27.53
2019-03-02T11:59:00.384Z,28.67
2019-03-02T12:01:47.829Z,23.70
2019-03-02T12:04:38.869Z,18.00
2019-03-02T12:07:41.867Z,16.60
2019-03-02T12:10:32.677Z,20.67
2019-03-02T12:13:34.877Z,26.70
2019-03-02T12:16:26.490Z,16.87
2019-03-02T12:19:05.382Z,23.47
2019-03-02T12:21:58.757Z,19.27
2019-03-02T12:24:47.163Z,21.40
2019-03-02T12:27:38.384Z,26.47
2019-03-02T12:30:37.057Z,28.83
2019-03-02T12:33:16.988Z,15.70
2019-03-02T12:36:12.460Z,18.53
2019-03-02T12:38:58.358Z,22.77
2019-03-02T12:41:48.824Z,23.97
2019-03-02T12:44:28.015Z,20.67
2019-03-02T12:47:19.734Z,15.10
2019-03-02T12:50:12.609Z,24.37
2019-03-02T12:53:09.945Z,22.53
2019-03-02T12:55:57.008Z,21.07
2019-03-02T12:58:42.784Z,20.10
2019-03-02T13:01:29.693Z,19.63
2019-03-02T13:04:24.329Z,13.13
2019-03-02T13:07:14.407Z,14.33
2019-03-02T13:09:59.520Z,11.13
2019-03-02T13:12:49.715Z,13.10
2019-03-02T13:15:42.141Z,20.27
2019-03-02T13:18:33.865Z,18.53
2019-03-02T13:21:28.182Z,10.03
2019-03-02T13:24:19.138Z,15.00
2019-03-02T13:27:05.462Z,15.37
2019-03-02T13:29:43.404Z,12.07
2019-03-02T13:32:37.592Z,10.70
2019-03-02T13:35:16.361Z,9.80
2019-03-02T13:38:07.439Z,15.20
2019-03-02T13:40:58.697Z,14.00
2019-03-02T13:44:06.035Z,9.00
2019-03-02T13:46:49.767Z,12.03
2019-03-02T13:49:28.784Z,7.10
2019-03-02T13:52:14.174Z,6.83
2019-03-02T13:55:09.932Z,4.20
2019-03-02T13:58:14.258Z,6.00
2019-03-02T14:00:54.090Z,5.03
2019-03-02T14:03:40.337Z,7.80
2019-03-02T14:06:33.136Z,4.50
2019-03-02T14:09:24.627Z,7.57
2019-03-02T14:12:11.936Z,4.10
2019-03-02T14:15:10.571Z,4.57
2019-03-02T14:17:53.179Z,11.60
2019-03-02T14:20:34.508Z,165.97
2019-03-02T14:23:21.429Z,19.73
2019-03-02T14:26:12.865Z,10.87
2019-03-02T14:29:00.175Z,9.80
2019-03-02T14:31:45.867Z,8.10
2019-03-02T14:34:40.195Z,4.03
2019-03-02T14:37:21.772Z,5.93
2019-03-02T14:40:14.697Z,3.10
2019-03-02T14:43:01.738Z,4.53
2019-03-02T14:45:59.228Z,4.50
2019-03-02T14:48:49.251Z,3.83
2019-03-02T14:51:30.314Z,3.33
2019-03-02T14:54:17.279Z,6.97
2019-03-02T14:57:09.441Z,5.03
2019-03-02T14:59:57.748Z,3.60
2019-03-02T15:02:58.570Z,5.60
2019-03-02T15:05:53.147Z,5.73
2019-03-02T15:08:42.691Z,3.43
2019-03-02T15:11:40.068Z,3.77
2019-03-02T15:14:38.401Z,3.40
2019-03-02T15:17:25.626Z,2.70
2019-03-02T15:20:14.282Z,2.93
2019-03-02T15:23:00.823Z,6.90
2019-03-02T15:25:54.736Z,5.03
2019-03-02T15:28:34.014Z,3.90
2019-03-02T15:31:10.422Z,5.03
2019-03-02T15:33:58.735Z,3.00
2019-03-02T15:36:47.839Z,5.83
2019-03-02T15:39:35.457Z,7.90
2019-03-02T15:42:10.512Z,6.23
2019-03-02T15:44:58.776Z,3.50
2019-03-02T15:47:53.253Z,3.60
2019-03-02T15:50:28.413Z,4.50
2019-03-02T15:53:28.725Z,5.53
2019-03-02T15:56:16.218Z,7.80
2019-03-02T15:58:55.731Z,5.87
2019-03-02T16:01:36.252Z,5.43
2019-03-02T16:04:12.788Z,5.73
2019-03-02T16:07:07.153Z,5.23
2019-03-02T16:09:54.672Z,4.40
2019-03-02T16:12:48.738Z,5.10
2019-03-02T16:15:37.005Z,6.33
2019-03-02T16:18:24.023Z,8.20
2019-03-02T16:21:11.049Z,5.17
2019-03-02T16:23:59.302Z,4.33
2019-03-02T16:26:41.008Z,6.73
2019-03-02T16:29:47.388Z,8.20
2019-03-02T16:32:38.472Z,6.83
2019-03-02T16:35:40.003Z,5.20
2019-03-02T16:38:38.006Z,7.07
2019-03-02T16:41:34.275Z,8.40
2019-03-02T16:44:36.027Z,5.10
2019-03-02T16:47:30.299Z,5.67
2019-03-02T16:50:30.631Z,6.03
2019-03-02T16:53:25.975Z,6.63
2019-03-02T16:56:26.468Z,5.50
2019-03-02T16:59:05.359Z,6.80
2019-03-02T17:02:09.246Z,5.03
2019-03-02T17:04:56.622Z,8.63
2019-03-02T17:07:47.947Z,6.13
2019-03-02T17:10:46.054Z,7.37
2019-03-02T17:13:35.642Z,7.10
2019-03-02T17:16:23.994Z,8.40
2019-03-02T17:19:11.215Z,4.23
2019-03-02T17:22:05.500Z,5.50
2019-03-02T17:24:53.052Z,8.10
2019-03-02T17:27:43.144Z,4.63
2019-03-02T17:30:40.561Z,3.83
2019-03-02T17:33:31.250Z,7.30
2019-03-02T17:36:33.038Z,7.57
2019-03-02T17:39:11.992Z,5.13
2019-03-02T17:41:56.746Z,5.90
2019-03-02T17:44:33.336Z,4.77
2019-03-02T17:47:09.877Z,5.13
2019-03-02T17:50:04.764Z,4.97
2019-03-02T17:52:59.045Z,6.27
2019-03-02T17:55:45.520Z,4.13
2019-03-02T17:58:43.178Z,5.60
2019-03-02T18:01:28.755Z,4.73
2019-03-02T18:04:12.115Z,4.53
2019-03-02T18:07:03.532Z,8.43
2019-03-02T18:09:50.564Z,7.50
2019-03-02T18:12:41.266Z,7.50
2019-03-02T18:15:32.323Z,9.30
2019-03-02T18:18:04.832Z,7.10
2019-03-02T18:20:35.948Z,6.07
2019-03-02T18:23:06.361Z,4.87
2019-03-02T18:25:35.663Z,5.10
2019-03-02T18:28:05.302Z,9.33
2019-03-02T18:30:34.938Z,5.63
2019-03-02T18:33:12.761Z,5.63
2019-03-02T18:35:42.089Z,7.23
2019-03-02T18:38:13.386Z,7.10
2019-03-02T18:40:42.432Z,5.63
2019-03-02T18:43:11.756Z,5.63
2019-03-02T18:45:41.052Z,6.23
2019-03-02T18:48:18.640Z,8.87
2019-03-02T18:51:03.867Z,6.90
2019-03-02T18:53:35.134Z,7.17
2019-03-02T18:56:04.809Z,6.37
2019-03-02T18:58:34.113Z,9.57
2019-03-02T19:01:03.799Z,7.50
2019-03-02T19:03:33.256Z,12.13
2019-03-02T19:06:02.648Z,10.73
2019-03-02T19:08:31.982Z,6.97
2019-03-02T19:11:01.287Z,8.20
2019-03-02T19:13:30.628Z,11.63
2019-03-02T19:15:59.927Z,8.00
2019-03-02T19:18:29.305Z,8.07
2019-03-02T19:20:58.613Z,7.70
2019-03-02T19:23:28.317Z,10.20
2019-03-02T19:25:57.663Z,10.17
2019-03-02T19:28:26.978Z,7.10
2019-03-02T19:30:56.281Z,9.17
2019-03-02T19:33:25.617Z,14.10
2019-03-02T19:35:54.987Z,8.87
2019-03-02T19:38:24.536Z,9.93
2019-03-02T19:40:53.965Z,9.00
2019-03-02T19:43:23.267Z,16.93
2019-03-02T19:45:52.885Z,16.40
2019-03-02T19:48:22.214Z,16.43
2019-03-02T19:50:51.970Z,12.10
2019-03-02T19:53:21.279Z,13.20
2019-03-02T19:55:50.680Z,19.57
2019-03-02T19:58:19.974Z,16.53
2019-03-02T20:00:49.329Z,10.37
2019-03-02T20:03:18.669Z,11.60
2019-03-02T20:05:47.968Z,16.37
2019-03-02T20:08:17.615Z,18.93
2019-03-02T20:10:46.946Z,13.07
2019-03-02T20:13:16.661Z,18.43
2019-03-02T20:15:46.046Z,16.60
2019-03-02T20:18:15.491Z,20.17
2019-03-02T20:20:44.905Z,13.60
2019-03-02T20:23:14.300Z,13.27
2019-03-02T20:25:43.702Z,17.80
2019-03-02T20:28:14.333Z,12.70
2019-03-02T20:30:43.708Z,15.40
2019-03-02T20:33:13.113Z,9.17
2019-03-02T20:35:42.780Z,13.70
2019-03-02T20:38:12.171Z,13.10
2019-03-02T20:40:41.473Z,15.40
2019-03-02T20:43:10.806Z,14.20
2019-03-02T20:45:40.493Z,11.30
2019-03-02T20:48:09.845Z,10.93
2019-03-02T20:50:39.148Z,13.07
2019-03-02T20:53:08.494Z,10.73
2019-03-02T20:55:37.856Z,11.40
2019-03-02T20:58:07.580Z,9.63
2019-03-02T21:00:36.909Z,15.33
2019-03-02T21:03:06.472Z,13.77
2019-03-02T21:05:36.060Z,10.90
2019-03-02T21:08:06.949Z,12.37
2019-03-02T21:10:36.368Z,13.93
2019-03-02T21:13:05.768Z,29.03
2019-03-02T21:15:36.091Z,17.37
2019-03-02T21:18:06.262Z,18.43
2019-03-02T21:20:36.602Z,13.00
2019-03-02T21:23:06.062Z,15.63
2019-03-02T21:25:35.651Z,18.90
2019-03-02T21:28:05.081Z,14.87
2019-03-02T21:30:34.472Z,12.77
2019-03-02T21:33:03.839Z,11.73
2019-03-02T21:35:33.179Z,16.53
2019-03-02T21:38:02.497Z,16.50
2019-03-02T21:40:31.864Z,19.13
2019-03-02T21:43:01.520Z,21.30
2019-03-02T21:45:30.871Z,20.67
2019-03-02T21:48:00.326Z,20.17
2019-03-02T21:50:30.223Z,16.40
2019-03-02T21:52:59.625Z,16.70
2019-03-02T21:55:28.975Z,25.03
2019-03-02T21:57:58.311Z,23.83
2019-03-02T22:00:27.960Z,17.80
2019-03-02T22:02:57.285Z,24.03
2019-03-02T22:05:26.613Z,13.27
2019-03-02T22:07:55.946Z,21.77
2019-03-02T22:10:31.561Z,10.10
2019-03-02T22:13:03.827Z,12.13
2019-03-02T22:15:33.296Z,12.97
2019-03-02T22:18:02.960Z,17.97
2019-03-02T22:20:32.329Z,13.20
2019-03-02T22:23:01.637Z,14.93
2019-03-02T22:25:30.995Z,12.13
2019-03-02T22:28:00.321Z,10.97
2019-03-02T22:30:29.741Z,14.60
2019-03-02T22:32:59.054Z,11.93
2019-03-02T22:35:28.406Z,10.00
2019-03-02T22:37:57.696Z,10.97
2019-03-02T22:40:27.072Z,9.73
2019-03-02T22:42:56.499Z,14.93
2019-03-02T22:45:25.951Z,8.60
2019-03-02T22:47:55.688Z,8.37
2019-03-02T22:50:25.099Z,13.33
2019-03-02T22:52:55.321Z,13.27
2019-03-02T22:55:24.928Z,16.77
2019-03-02T22:57:54.269Z,15.17
2019-03-02T23:01:06.216Z,6.40
2019-03-02T23:03:33.971Z,7.60
2019-03-02T23:06:03.279Z,7.10
2019-03-02T23:08:32.986Z,13.03
2019-03-02T23:11:02.281Z,16.33
2019-03-02T23:13:31.584Z,8.47
2019-03-02T23:16:00.968Z,9.50
2019-03-02T23:18:30.320Z,10.30
2019-03-02T23:21:00.476Z,10.07
2019-03-02T23:23:29.776Z,6.70
2019-03-02T23:25:59.086Z,10.50
2019-03-02T23:28:28.819Z,11.23
2019-03-02T23:30:58.301Z,9.77
2019-03-02T23:33:27.620Z,8.70
2019-03-02T23:35:56.977Z,11.13
2019-03-02T23:38:26.315Z,11.03
2019-03-02T23:40:55.614Z,16.13
2019-03-02T23:43:24.928Z,7.33
2019-03-02T23:45:54.239Z,9.13
2019-03-02T23:48:23.578Z,8.60
2019-03-02T23:50:52.889Z,8.50
2019-03-02T23:53:23.390Z,18.13
2019-03-02T23:55:52.744Z,9.87
2019-03-02T23:58:22.442Z,8.00
